createdAt,value
2023-05-10T00:02:45.010Z,1.83
2023-05-10T00:05:47.638Z,1.50
2023-05-10T00:08:50.233Z,1.30
2023-05-10T00:11:52.782Z,1.58
2023-05-10T00:14:55.348Z,1.20
2023-05-10T00:17:58.395Z,1.80
2023-05-10T00:21:01.002Z,1.90
2023-05-10T00:24:03.759Z,1.50
2023-05-10T00:27:06.289Z,1.80
2023-05-10T00:30:09.321Z,1.87
2023-05-10T00:33:12.651Z,1.80
2023-05-10T00:36:15.201Z,1.95
2023-05-10T00:39:17.690Z,2.15
2023-05-10T00:42:20.797Z,1.40
2023-05-10T00:45:23.939Z,2.23
2023-05-10T00:48:26.875Z,2.07
2023-05-10T00:51:29.595Z,1.98
2023-05-10T00:54:32.107Z,2.50
2023-05-10T00:57:34.786Z,1.75
2023-05-10T01:00:39.610Z,2.03
2023-05-10T01:03:42.702Z,1.70
2023-05-10T01:06:45.249Z,1.80
2023-05-10T01:09:48.337Z,1.80
2023-05-10T01:12:52.255Z,1.80
2023-05-10T01:15:55.841Z,2.13
2023-05-10T01:18:58.785Z,2.27
2023-05-10T01:22:25.519Z,1.92
2023-05-10T01:26:07.441Z,1.88
2023-05-10T01:29:47.490Z,1.88
2023-05-10T01:32:53.980Z,1.90
2023-05-10T01:36:09.978Z,2.07
2023-05-10T01:39:30.838Z,2.00
2023-05-10T01:42:46.245Z,2.30
2023-05-10T01:46:13.319Z,2.20
2023-05-10T01:49:28.210Z,1.97
2023-05-10T01:52:38.959Z,1.90
2023-05-10T01:55:48.559Z,1.80
2023-05-10T01:58:53.413Z,2.03
2023-05-10T02:01:59.976Z,2.03
2023-05-10T02:05:05.029Z,1.80
2023-05-10T02:08:09.359Z,2.10
2023-05-10T02:11:16.120Z,2.08
2023-05-10T02:14:20.156Z,2.15
2023-05-10T02:17:24.215Z,2.35
2023-05-10T02:20:28.046Z,2.20
2023-05-10T02:23:31.534Z,1.97
2023-05-10T02:26:36.208Z,1.90
2023-05-10T02:29:39.743Z,2.17
2023-05-10T02:32:43.239Z,1.67
2023-05-10T02:35:47.531Z,1.67
2023-05-10T02:38:52.735Z,2.40
2023-05-10T02:41:56.620Z,2.00
2023-05-10T05:41:29.346Z,3.90
2023-05-10T05:44:31.891Z,4.03
2023-05-10T05:47:34.651Z,3.50
2023-05-10T05:50:37.296Z,3.43
2023-05-10T05:53:42.711Z,3.70
2023-05-10T05:56:45.525Z,4.63
2023-05-10T05:59:48.400Z,4.07
2023-05-10T06:02:52.062Z,4.05
2023-05-10T06:05:54.704Z,3.77
2023-05-10T06:08:57.767Z,3.73
2023-05-10T06:12:01.569Z,3.75
2023-05-10T06:15:04.944Z,3.30
2023-05-10T06:18:10.024Z,3.70
2023-05-10T06:21:21.146Z,4.17
2023-05-10T06:24:24.240Z,3.13
2023-05-10T06:27:27.823Z,3.65
2023-05-10T06:30:30.640Z,2.97
2023-05-10T06:33:33.791Z,3.70
2023-05-10T06:36:36.292Z,3.87
2023-05-10T06:39:41.483Z,3.47
2023-05-10T06:42:46.011Z,3.30
2023-05-10T06:45:49.345Z,3.65
2023-05-10T06:48:51.871Z,3.33
2023-05-10T06:51:54.566Z,3.20
2023-05-10T06:55:18.371Z,4.27
2023-05-10T06:58:21.104Z,3.42
2023-05-10T07:01:23.738Z,2.80
2023-05-10T07:04:26.678Z,3.28
2023-05-10T07:07:29.946Z,3.07
2023-05-10T07:10:32.421Z,3.40
2023-05-10T07:13:35.555Z,3.08
2023-05-10T07:16:38.143Z,2.80
2023-05-10T07:19:40.838Z,3.03
2023-05-10T07:22:43.616Z,2.87
2023-05-10T07:25:50.534Z,3.10
2023-05-10T07:28:53.025Z,2.50
2023-05-10T07:31:58.521Z,3.15
2023-05-10T07:35:01.758Z,3.00
2023-05-10T07:38:04.400Z,3.30
2023-05-10T07:41:06.890Z,3.30
2023-05-10T07:44:09.483Z,3.08
2023-05-10T07:47:12.143Z,2.85
2023-05-10T07:50:15.603Z,3.90
2023-05-10T07:53:19.573Z,3.27
2023-05-10T07:56:22.077Z,3.13
2023-05-10T07:59:26.909Z,4.50
2023-05-10T08:02:29.486Z,3.10
2023-05-10T08:05:34.059Z,2.50
2023-05-10T08:08:38.168Z,3.00
2023-05-10T08:11:40.735Z,2.57
2023-05-10T08:14:43.793Z,2.90
2023-05-10T08:17:46.422Z,2.50
2023-05-10T08:20:53.606Z,2.95
2023-05-10T08:23:56.366Z,3.27
2023-05-10T08:26:59.431Z,3.20
2023-05-10T13:34:42.892Z,2.10
2023-05-10T13:37:45.731Z,1.70
2023-05-10T13:40:48.297Z,1.60
2023-05-10T13:43:50.842Z,1.98
2023-05-10T13:46:53.409Z,1.92
2023-05-10T13:49:56.309Z,1.48
2023-05-10T13:52:58.867Z,1.60
2023-05-10T13:56:01.628Z,1.50
2023-05-10T13:59:06.278Z,1.20
2023-05-10T14:02:08.955Z,1.60
2023-05-10T14:05:11.466Z,1.40
2023-05-10T14:08:14.333Z,1.90
2023-05-10T14:11:16.978Z,1.50
2023-05-10T14:14:19.504Z,1.05
2023-05-10T14:17:23.247Z,1.70
2023-05-10T14:20:25.807Z,1.33
2023-05-10T14:23:29.829Z,1.33
2023-05-10T14:26:32.746Z,1.60
2023-05-10T14:29:35.233Z,1.50
2023-05-10T14:32:38.348Z,1.75
2023-05-10T14:35:42.248Z,1.50
2023-05-10T14:38:45.075Z,1.23
2023-05-10T14:41:48.408Z,1.20
2023-05-10T14:44:51.156Z,1.10
2023-05-10T14:47:53.793Z,1.15
2023-05-10T14:50:56.859Z,2.33
2023-05-10T14:53:59.393Z,1.40
2023-05-10T14:57:01.860Z,1.13
2023-05-10T15:00:05.010Z,1.63
2023-05-10T15:03:08.219Z,1.10
2023-05-10T15:06:11.681Z,0.90
2023-05-10T15:09:14.158Z,1.70
2023-05-10T15:12:16.707Z,1.15
2023-05-10T15:15:19.260Z,1.30
2023-05-10T15:18:23.717Z,1.88
2023-05-10T15:21:26.209Z,2.20
2023-05-10T15:24:29.042Z,1.70
2023-05-10T15:27:31.533Z,1.42
2023-05-10T15:30:34.029Z,1.65
2023-05-10T15:33:38.257Z,1.63
2023-05-10T15:36:40.805Z,1.40
2023-05-10T15:39:43.353Z,1.40
2023-05-10T15:42:45.837Z,1.90
2023-05-10T15:45:48.423Z,1.70
2023-05-10T15:48:50.932Z,1.65
2023-05-10T15:51:53.558Z,1.70
2023-05-10T15:54:56.044Z,1.70
2023-05-10T15:57:58.556Z,1.95
2023-05-10T16:01:01.329Z,2.00
2023-05-10T16:04:04.110Z,2.08
2023-05-10T16:07:06.603Z,2.30
2023-05-10T16:10:11.177Z,2.10
2023-05-10T16:13:15.154Z,1.77
2023-05-10T16:16:17.686Z,1.95
2023-05-10T16:19:20.373Z,2.13
2023-05-10T16:22:27.509Z,1.73
2023-05-10T16:25:30.027Z,1.80
2023-05-10T16:28:32.558Z,2.00
2023-05-10T16:31:35.428Z,2.58
2023-05-10T16:34:38.107Z,1.83
2023-05-10T16:37:40.877Z,1.90
2023-05-10T16:40:43.284Z,1.87
2023-05-10T16:43:45.757Z,1.65
2023-05-10T16:46:48.997Z,1.58
2023-05-10T16:49:51.554Z,1.80
2023-05-10T16:52:54.068Z,1.90
2023-05-10T16:55:56.923Z,1.53
2023-05-10T16:58:59.423Z,1.52
2023-05-10T17:02:02.096Z,2.00
2023-05-10T17:05:05.269Z,1.67
2023-05-10T17:08:07.851Z,1.57
2023-05-10T17:11:10.493Z,2.00
2023-05-10T17:14:13.511Z,1.85
2023-05-10T17:17:16.091Z,2.17
2023-05-10T17:20:18.628Z,2.20
2023-05-10T17:23:21.080Z,2.80
2023-05-10T17:26:23.699Z,1.97
2023-05-10T17:29:28.231Z,1.70
2023-05-10T17:32:31.161Z,1.67
2023-05-10T17:35:34.240Z,1.90
2023-05-10T17:38:36.925Z,1.50
2023-05-10T17:41:39.467Z,1.40
2023-05-10T17:44:42.165Z,1.27
2023-05-10T17:47:44.759Z,1.58
2023-05-10T17:50:50.105Z,1.33
2023-05-10T17:53:53.847Z,1.40
2023-05-10T17:56:58.107Z,1.27
2023-05-10T18:00:02.273Z,1.27
2023-05-10T18:03:07.587Z,1.30
2023-05-10T18:06:10.611Z,1.20
2023-05-10T18:09:13.261Z,1.53
2023-05-10T18:12:15.911Z,1.17
2023-05-10T18:15:18.544Z,1.35
2023-05-10T18:18:21.600Z,1.38
2023-05-10T18:21:24.384Z,2.15
2023-05-10T18:24:38.324Z,2.10
2023-05-10T18:27:42.429Z,1.53
2023-05-10T18:30:45.062Z,1.60
2023-05-10T18:33:47.669Z,1.42
2023-05-10T18:36:50.224Z,1.58
2023-05-10T18:39:53.010Z,1.90
2023-05-10T18:42:55.537Z,1.80
2023-05-10T18:45:58.037Z,1.63
2023-05-10T18:49:00.650Z,1.33
2023-05-10T18:52:03.359Z,1.50
2023-05-10T18:55:06.813Z,1.50
2023-05-10T18:58:09.460Z,1.40
2023-05-10T19:01:12.129Z,1.73
2023-05-10T19:04:15.309Z,1.25
2023-05-10T19:07:17.805Z,1.10
2023-05-10T19:10:20.752Z,1.40
2023-05-10T19:13:24.419Z,1.53
2023-05-10T19:16:28.890Z,1.83
2023-05-10T19:19:32.945Z,2.33
2023-05-10T19:22:47.025Z,1.90
2023-05-10T19:25:59.644Z,1.30
2023-05-10T19:29:02.502Z,1.50
2023-05-10T19:32:05.814Z,1.33
2023-05-10T19:35:09.037Z,1.30
2023-05-10T19:38:12.106Z,1.50
2023-05-10T19:41:14.993Z,1.50
2023-05-10T19:44:18.107Z,1.30
2023-05-10T19:47:21.462Z,1.10
2023-05-10T19:50:23.999Z,1.55
2023-05-10T19:53:27.846Z,1.52
2023-05-10T19:56:30.915Z,1.53
2023-05-10T19:59:33.878Z,1.40
2023-05-10T20:02:36.660Z,1.00
2023-05-10T20:05:39.307Z,1.20
2023-05-10T20:08:41.883Z,1.20
2023-05-10T20:11:44.386Z,1.40
2023-05-10T20:14:46.931Z,1.47
2023-05-10T20:17:54.065Z,1.45
2023-05-10T20:20:59.569Z,1.70
2023-05-10T20:24:02.052Z,1.48
2023-05-10T20:27:04.661Z,1.50
2023-05-10T20:30:07.836Z,2.33
2023-05-10T20:33:10.588Z,1.60
2023-05-10T20:36:13.078Z,1.20
2023-05-10T20:39:15.520Z,1.77
2023-05-10T20:42:18.063Z,1.50
2023-05-10T20:45:20.772Z,1.50
2023-05-10T20:48:23.717Z,1.30
2023-05-10T20:51:26.212Z,1.83
2023-05-10T20:54:28.655Z,1.40
2023-05-10T20:57:31.238Z,1.43
2023-05-10T21:00:33.654Z,1.50
2023-05-10T21:03:36.230Z,1.20
2023-05-10T21:06:38.942Z,1.25
2023-05-10T21:09:41.455Z,1.40
2023-05-10T21:12:43.962Z,1.37
2023-05-10T21:15:46.676Z,1.50
2023-05-10T21:18:49.296Z,1.20
2023-05-10T21:21:52.494Z,1.33
2023-05-10T21:24:55.044Z,1.50
2023-05-10T21:27:57.744Z,1.73
2023-05-10T21:31:00.268Z,1.50
2023-05-10T21:34:02.766Z,1.70
2023-05-10T21:37:05.229Z,1.67
2023-05-10T21:40:08.163Z,1.77
2023-05-10T21:43:11.377Z,1.57
2023-05-10T21:46:14.355Z,1.57
2023-05-10T21:49:16.854Z,1.42
2023-05-10T21:52:19.341Z,1.77
2023-05-10T21:55:22.133Z,1.77
2023-05-10T21:58:24.593Z,1.67
2023-05-10T22:01:28.281Z,2.00
2023-05-10T22:04:30.886Z,1.95
2023-05-10T22:07:33.735Z,2.30
2023-05-10T22:10:36.198Z,2.30
2023-05-10T22:13:38.782Z,1.80
2023-05-10T22:16:41.369Z,2.00
2023-05-10T22:19:43.983Z,2.10
2023-05-10T22:22:46.567Z,1.85
2023-05-10T22:25:49.040Z,1.52
2023-05-10T22:28:51.834Z,2.43
2023-05-10T22:31:54.340Z,1.90
2023-05-10T22:34:57.007Z,2.17
2023-05-10T22:37:59.459Z,1.67
2023-05-10T22:41:01.978Z,1.50
2023-05-10T22:44:05.039Z,1.30
2023-05-10T22:47:08.987Z,1.43
2023-05-10T22:50:12.413Z,1.45
2023-05-10T22:53:15.089Z,1.40
2023-05-10T22:56:17.918Z,1.95
2023-05-10T22:59:20.957Z,1.27
2023-05-10T23:02:23.617Z,1.23
2023-05-10T23:05:26.222Z,1.67
2023-05-10T23:08:28.667Z,1.42
2023-05-10T23:11:31.265Z,1.25
2023-05-10T23:14:33.967Z,1.20
2023-05-10T23:17:36.585Z,1.30
2023-05-10T23:20:42.824Z,1.50
2023-05-10T23:23:45.438Z,1.40
2023-05-10T23:26:48.069Z,1.30
2023-05-10T23:29:55.644Z,1.33
2023-05-10T23:32:58.302Z,1.20
2023-05-10T23:36:00.994Z,1.35
2023-05-10T23:39:05.007Z,1.50
2023-05-10T23:42:07.678Z,1.33
2023-05-10T23:45:10.712Z,1.27
2023-05-10T23:48:13.308Z,1.50
2023-05-10T23:51:15.887Z,1.33
2023-05-10T23:54:19.656Z,1.40
2023-05-10T23:57:22.433Z,1.38
